Terminal Aerodrome Forecast
Issued by NWS Dodge City, KS

Home | Current Version | Previous Version | Text Only | Print | Product List | Glossary On
Versions: 1 2 3 4 5 6 7 8 9 10 11 12 13 14 15 16 17 18 19 20 21 22 23 24 25 26 27 28 29 30 31 32 33 34
088
FTUS43 KDDC 181000 AAB
TAFDDC
TAF AMD
KDDC 181000Z 1810/1906 34018G26KT P6SM -SHRA BKN050
     FM181100 34026G35KT P6SM -SHRA BKN025
     FM181400 34026G35KT P6SM SCT025
     FM182200 33017KT P6SM SKC
     FM190100 32008KT P6SM SKC=

USA.gov is the U.S. government's official web portal to all federal, state and local government web resources and services.